Windham, New York
Current Conditions -  °F | °C
As of 2:51 PM on Tuesday 25 Nov 2014 (Local Time) from KALB Reporting Station
Broken Clouds Broken Clouds  
Wind Chill: 53°   Ceiling: 26000
Heat Index: 53°   Visibility: 10mi
Dew Point: 25°   Wind: 12mph
Humidity: 34%   Direction: 260°W
Pressure: 29.94"   Gusts: NA
Location:  42.31°N, 74.25°W
Report Text: KALB 251951Z 26010KT 10SM FEW050 FEW200 BKN260 12/M04 A2994 RMK AO2 SLP140 T01171039
Loading
Personal Weather Stations






























Interactive Weather Map New forecast layout! Learn more

10-Day Weather Forecast

Advertisements
Track Severe Weather on mobile